Time;durP1;ratioP1;P1;durP2;ratioP2;P2;SDS_P1;SDS_P2;PMS_P1;PMS_P2;Temp;Humidity;BMP_temperature;BMP_pressure;BME280_temperature;BME280_humidity;BME280_pressure;Samples;Min_cycle;Max_cycle;Signal;HPM_P1;HPM_P2
2021/12/04 00:02:06;;;;;;;7.18;6.72;;;6.30;99.90;;;;;;5055550;28;20248;-62
2021/12/04 00:04:38;;;;;;;6.13;5.63;;;6.30;99.90;;;;;;5055541;28;20174;-62
2021/12/04 00:07:06;;;;;;;7.40;6.90;;;6.30;99.90;;;;;;5055446;28;20190;-62
2021/12/04 00:09:32;;;;;;;6.05;5.55;;;6.30;99.90;;;;;;5055434;28;20179;-62
2021/12/04 00:12:02;;;;;;;5.68;5.18;;;6.30;99.90;;;;;;5055431;28;20628;-62
2021/12/04 00:14:30;;;;;;;6.32;5.40;;;6.20;99.90;;;;;;5055338;28;20209;-62
2021/12/04 00:16:57;;;;;;;5.15;4.75;;;6.30;99.90;;;;;;5055359;28;20190;-62
2021/12/04 00:19:24;;;;;;;7.00;6.57;;;6.30;99.90;;;;;;5055376;28;20175;-62
2021/12/04 00:21:50;;;;;;;5.78;5.38;;;6.30;99.90;;;;;;5054026;28;20337;-63
2021/12/04 00:24:16;;;;;;;5.72;5.32;;;6.30;99.90;;;;;;5055161;28;20629;-62
2021/12/04 00:26:42;;;;;;;5.80;5.30;;;6.30;99.90;;;;;;5053989;28;20245;-62
2021/12/04 00:29:08;;;;;;;6.50;6.10;;;6.30;99.90;;;;;;5055100;28;20182;-62
2021/12/04 00:31:34;;;;;;;6.57;6.18;;;6.30;99.90;;;;;;5055048;28;20537;-62
2021/12/04 00:34:01;;;;;;;5.80;5.30;;;6.30;99.90;;;;;;5054969;28;20213;-61
2021/12/04 00:49:51;;;;;;;6.90;6.50;;;6.30;99.90;;;;;;5054804;28;20226;-62
2021/12/04 00:52:17;;;;;;;6.18;5.78;;;6.40;99.90;;;;;;5054949;28;20621;-62
2021/12/04 00:54:43;;;;;;;6.18;5.78;;;6.30;99.90;;;;;;5054605;28;20263;-62
2021/12/04 00:57:09;;;;;;;6.95;6.55;;;6.30;99.90;;;;;;5054436;28;20225;-62
2021/12/04 00:59:35;;;;;;;7.03;6.63;;;6.40;99.90;;;;;;5053270;28;20633;-62
2021/12/04 01:02:01;;;;;;;5.90;5.50;;;6.40;99.90;;;;;;5053604;28;20214;-62
2021/12/04 01:04:27;;;;;;;7.10;6.63;;;6.40;99.90;;;;;;5053011;28;20172;-62
2021/12/04 01:06:53;;;;;;;5.75;5.28;;;6.50;99.90;;;;;;5054071;28;20225;-62
2021/12/04 01:09:21;;;;;;;5.72;5.32;;;6.40;99.90;;;;;;5053162;28;20225;-62
2021/12/04 01:11:47;;;;;;;6.10;5.60;;;6.50;99.90;;;;;;5054275;28;20198;-63
2021/12/04 01:14:17;;;;;;;5.90;5.50;;;6.40;99.90;;;;;;5054374;28;20199;-62
2021/12/04 01:16:43;;;;;;;5.38;4.97;;;6.50;99.90;;;;;;5054335;28;20262;-62
2021/12/04 01:19:09;;;;;;;6.72;6.30;;;6.50;99.90;;;;;;5054394;28;20659;-62
2021/12/04 01:21:36;;;;;;;7.35;6.85;;;6.50;99.90;;;;;;5054031;28;20195;-61
2021/12/04 01:24:02;;;;;;;5.60;5.20;;;6.40;99.90;;;;;;5054091;28;20171;-62
2021/12/04 01:26:27;;;;;;;7.00;6.50;;;6.40;99.90;;;;;;5053168;28;20171;-62
2021/12/04 01:28:53;;;;;;;5.50;5.10;;;6.40;99.90;;;;;;5052829;28;20582;-62
2021/12/04 01:31:20;;;;;;;5.90;5.40;;;6.40;99.90;;;;;;5053946;28;20262;-62
2021/12/04 01:33:46;;;;;;;7.47;6.97;;;6.50;99.90;;;;;;5052633;28;20518;-61
2021/12/04 01:36:12;;;;;;;6.30;5.90;;;6.60;99.90;;;;;;5053821;28;20647;-61
2021/12/04 01:38:37;;;;;;;6.72;6.10;;;6.50;99.90;;;;;;5035679;28;20179;-65
2021/12/04 01:41:04;;;;;;;7.00;6.50;;;6.50;99.90;;;;;;5053698;28;20206;-62
2021/12/04 01:43:29;;;;;;;6.93;5.88;;;6.40;99.90;;;;;;5053711;28;20180;-60
2021/12/04 01:45:56;;;;;;;5.28;4.85;;;6.40;99.90;;;;;;5035840;28;20183;-60
2021/12/04 01:48:23;;;;;;;6.15;5.72;;;6.40;99.90;;;;;;5052494;28;20186;-60
2021/12/04 01:50:50;;;;;;;6.30;5.90;;;6.40;99.90;;;;;;5053663;28;20221;-60
2021/12/04 01:53:16;;;;;;;5.43;5.03;;;6.40;99.90;;;;;;5053624;28;20167;-62
2021/12/04 01:55:41;;;;;;;6.10;5.70;;;6.30;99.90;;;;;;5052271;28;20174;-61
2021/12/04 01:58:07;;;;;;;6.00;5.60;;;6.40;99.90;;;;;;5053569;28;20190;-60
2021/12/04 02:00:37;;;;;;;6.25;5.65;;;6.30;99.90;;;;;;5053145;28;20194;-60
2021/12/04 02:03:04;;;;;;;6.75;6.35;;;6.40;99.90;;;;;;5053449;28;20180;-62
2021/12/04 02:05:31;;;;;;;6.90;6.40;;;6.40;99.90;;;;;;5053469;28;20162;-62
2021/12/04 02:07:57;;;;;;;5.70;5.20;;;6.50;99.90;;;;;;5052161;28;20180;-60
2021/12/04 02:10:23;;;;;;;6.60;6.10;;;6.50;99.90;;;;;;5035565;28;20190;-60
2021/12/04 02:12:49;;;;;;;5.82;5.32;;;6.60;99.90;;;;;;5052076;28;20199;-61
2021/12/04 02:15:16;;;;;;;6.20;5.70;;;6.60;99.90;;;;;;5053441;28;20176;-62
2021/12/04 02:17:46;;;;;;;7.40;6.90;;;6.60;99.90;;;;;;5052916;28;20557;-62
2021/12/04 02:20:22;;;;;;;6.55;6.03;;;6.60;99.90;;;;;;5052188;28;20186;-62
2021/12/04 02:22:49;;;;;;;7.32;6.82;;;6.50;99.90;;;;;;5053296;28;20584;-62
2021/12/04 02:25:16;;;;;;;7.13;6.72;;;6.50;99.90;;;;;;5053479;28;20180;-61
2021/12/04 02:27:42;;;;;;;5.60;5.20;;;6.60;99.90;;;;;;5052111;28;20186;-60
2021/12/04 02:30:12;;;;;;;6.70;5.82;;;6.50;99.90;;;;;;5052070;28;20511;-60
2021/12/04 02:32:38;;;;;;;5.65;5.25;;;6.50;99.90;;;;;;5053211;28;20185;-61
2021/12/04 02:35:06;;;;;;;7.30;6.80;;;6.50;99.90;;;;;;5051980;28;20638;-62
2021/12/04 02:37:33;;;;;;;7.40;6.90;;;6.60;99.90;;;;;;5053077;28;20179;-61
2021/12/04 02:39:59;;;;;;;6.85;6.35;;;6.60;99.90;;;;;;5052958;28;20167;-61
2021/12/04 02:42:29;;;;;;;8.65;8.02;;;6.60;99.90;;;;;;5051888;28;20204;-61
2021/12/04 02:44:55;;;;;;;8.10;7.55;;;6.60;99.90;;;;;;5053203;28;20629;-61
2021/12/04 02:47:21;;;;;;;6.97;6.47;;;6.60;99.90;;;;;;5052839;28;20174;-61
2021/12/04 02:49:47;;;;;;;6.60;6.20;;;6.60;99.90;;;;;;5053041;28;20174;-61
2021/12/04 02:52:13;;;;;;;6.75;6.25;;;6.70;99.90;;;;;;5052749;28;20180;-60
2021/12/04 02:54:40;;;;;;;7.95;7.45;;;6.60;99.90;;;;;;5053055;28;20174;-61
2021/12/04 02:57:07;;;;;;;7.10;6.63;;;6.60;99.90;;;;;;5052914;28;20172;-61
2021/12/04 02:59:35;;;;;;;8.05;7.55;;;6.60;99.90;;;;;;5052986;28;20171;-61
2021/12/04 03:02:00;;;;;;;6.10;5.65;;;6.60;99.90;;;;;;5052863;28;20279;-61
2021/12/04 03:04:28;;;;;;;7.15;6.75;;;6.60;99.90;;;;;;5053194;28;20672;-61
2021/12/04 03:06:54;;;;;;;8.15;7.53;;;6.60;99.90;;;;;;5035068;28;20202;-61
2021/12/04 03:09:20;;;;;;;6.50;6.00;;;6.70;99.90;;;;;;5053148;28;20182;-61
2021/12/04 03:11:46;;;;;;;6.70;6.13;;;6.60;99.90;;;;;;5052935;28;20193;-61
2021/12/04 03:14:13;;;;;;;7.07;6.47;;;6.60;99.90;;;;;;5051612;28;20174;-61
2021/12/04 03:16:40;;;;;;;7.18;6.68;;;6.60;99.90;;;;;;5052654;28;20559;-61
2021/12/04 03:19:06;;;;;;;7.10;6.60;;;6.60;99.90;;;;;;5052831;28;20268;-61
2021/12/04 03:21:34;;;;;;;7.65;7.15;;;6.70;99.90;;;;;;5052428;28;20256;-61
2021/12/04 03:24:03;;;;;;;7.30;6.80;;;6.70;99.90;;;;;;5052472;28;20190;-61
2021/12/04 03:26:29;;;;;;;6.18;5.78;;;6.70;99.90;;;;;;5056282;28;20179;-61
2021/12/04 03:28:57;;;;;;;6.68;6.15;;;6.60;99.90;;;;;;5055183;28;20695;-61
2021/12/04 03:42:06;;;;;;;6.85;6.38;;;6.60;99.90;;;;;;5055821;28;20213;-61
2021/12/04 03:44:32;;;;;;;5.70;5.20;;;6.70;99.90;;;;;;5055597;28;20182;-61
2021/12/04 03:46:59;;;;;;;5.72;5.32;;;6.70;99.90;;;;;;5054382;28;20539;-61
2021/12/04 03:49:25;;;;;;;6.82;6.32;;;6.60;99.90;;;;;;5054646;28;20187;-61
2021/12/04 03:51:51;;;;;;;7.07;6.57;;;6.60;99.90;;;;;;5054658;28;20282;-61
2021/12/04 03:54:17;;;;;;;6.97;6.47;;;6.70;99.90;;;;;;5055783;28;20613;-61
2021/12/04 03:56:43;;;;;;;6.57;6.07;;;6.70;99.90;;;;;;5055755;28;20172;-61
2021/12/04 03:59:09;;;;;;;7.65;7.05;;;6.60;99.90;;;;;;5054491;28;20187;-61
2021/12/04 04:01:35;;;;;;;6.28;5.68;;;6.60;99.90;;;;;;5055547;28;20611;-61
2021/12/04 04:04:00;;;;;;;7.82;7.13;;;6.60;99.90;;;;;;5055575;28;20210;-61
2021/12/04 04:06:26;;;;;;;8.23;7.45;;;6.70;99.90;;;;;;5054388;28;20707;-61
2021/12/04 04:08:52;;;;;;;7.15;6.53;;;6.70;99.90;;;;;;5055565;28;20242;-61
2021/12/04 04:11:18;;;;;;;8.82;8.05;;;6.70;99.90;;;;;;5054323;28;20257;-61
2021/12/04 04:13:45;;;;;;;9.55;8.65;;;6.70;99.90;;;;;;5055442;28;20625;-61
2021/12/04 04:16:12;;;;;;;8.98;8.23;;;6.70;99.90;;;;;;5055347;28;20241;-61
2021/12/04 04:18:38;;;;;;;9.05;8.27;;;6.70;99.90;;;;;;5055300;28;20176;-63
2021/12/04 04:21:04;;;;;;;9.43;8.63;;;6.60;99.90;;;;;;5055220;28;20223;-61
2021/12/04 04:23:31;;;;;;;8.60;7.47;;;6.70;99.90;;;;;;5054931;28;20660;-61
2021/12/04 04:25:56;;;;;;;9.88;8.98;;;6.70;99.90;;;;;;5053701;28;20179;-61
2021/12/04 04:28:22;;;;;;;10.82;9.93;;;6.70;99.90;;;;;;5055128;28;20690;-61
2021/12/04 04:30:49;;;;;;;10.43;9.38;;;6.70;99.90;;;;;;5054177;28;20532;-61
2021/12/04 04:33:15;;;;;;;10.32;9.43;;;6.70;99.90;;;;;;5054773;28;20639;-61
2021/12/04 04:35:56;;;;;;;9.68;8.68;;;6.70;99.90;;;;;;5053772;28;20190;-61
2021/12/04 04:38:36;;;;;;;10.05;9.05;;;6.70;99.90;;;;;;5053947;28;20257;-61
2021/12/04 04:57:40;;;;;;;8.70;7.90;;;6.70;99.90;;;;;;5054581;28;20594;-61
2021/12/04 05:00:30;;;;;;;10.27;9.38;;;6.70;99.90;;;;;;5054620;28;20519;-61
2021/12/04 05:11:14;;;;;;;9.05;8.15;;;6.70;99.90;;;;;;5053437;28;20167;-61
2021/12/04 05:13:40;;;;;;;8.60;7.80;;;6.70;99.90;;;;;;5054239;28;20163;-61
2021/12/04 05:16:14;;;;;;;10.25;9.35;;;6.60;99.90;;;;;;5054265;28;20199;-61
2021/12/04 05:18:58;;;;;;;9.65;8.95;;;6.70;99.90;;;;;;5052675;28;20265;-61
2021/12/04 05:21:23;;;;;;;8.90;8.00;;;6.70;99.90;;;;;;5054014;28;20194;-61
2021/12/04 05:23:55;;;;;;;8.68;7.88;;;6.60;99.90;;;;;;5052885;28;20182;-61
2021/12/04 05:26:26;;;;;;;10.32;9.52;;;6.60;99.90;;;;;;5054328;28;20171;-61
2021/12/04 05:28:54;;;;;;;9.85;8.98;;;6.70;99.90;;;;;;5052813;28;20167;-61
2021/12/04 05:31:21;;;;;;;8.43;7.53;;;6.70;99.90;;;;;;5052722;28;20175;-61
2021/12/04 05:33:48;;;;;;;9.07;8.25;;;6.70;99.90;;;;;;5036097;28;20575;-61
2021/12/04 05:36:14;;;;;;;10.73;9.70;;;6.70;99.90;;;;;;5053854;28;20178;-61
2021/12/04 05:38:39;;;;;;;10.38;9.48;;;6.70;99.90;;;;;;5053816;28;20621;-61
2021/12/04 05:41:06;;;;;;;11.50;10.52;;;6.70;99.90;;;;;;5053788;28;20253;-61
2021/12/04 05:43:33;;;;;;;10.18;9.38;;;6.70;99.90;;;;;;5053734;28;20203;-61
2021/12/04 05:46:11;;;;;;;10.63;9.73;;;6.70;99.90;;;;;;5053844;28;20236;-61
2021/12/04 05:56:24;;;;;;;10.57;9.77;;;6.70;99.90;;;;;;5052413;28;20191;-61
2021/12/04 05:58:51;;;;;;;9.65;8.85;;;6.70;99.90;;;;;;5053489;28;20175;-61
2021/12/04 06:01:19;;;;;;;8.65;7.85;;;6.70;99.90;;;;;;5052023;28;20288;-61
2021/12/04 06:03:45;;;;;;;9.40;8.60;;;6.70;99.90;;;;;;5053454;28;20188;-60
2021/12/04 06:06:11;;;;;;;8.90;8.10;;;6.70;99.90;;;;;;5053516;28;20183;-61
2021/12/04 06:08:36;;;;;;;11.68;10.60;;;6.70;99.90;;;;;;5053179;28;20163;-61
2021/12/04 06:11:02;;;;;;;11.70;10.75;;;6.70;99.90;;;;;;5051952;28;20171;-61
2021/12/04 06:13:28;;;;;;;11.95;10.95;;;6.70;99.90;;;;;;5053399;28;20175;-61
2021/12/04 06:15:54;;;;;;;12.27;11.18;;;6.70;99.90;;;;;;5052939;28;20272;-61
2021/12/04 06:18:21;;;;;;;11.63;10.63;;;6.70;99.90;;;;;;5052039;28;20270;-61
2021/12/04 06:23:32;;;;;;;12.07;11.07;;;6.70;99.90;;;;;;5053412;28;20205;-61
2021/12/04 06:25:59;;;;;;;12.05;10.10;;;6.80;99.90;;;;;;5053074;28;20180;-61
2021/12/04 06:28:25;;;;;;;10.38;9.38;;;6.70;99.90;;;;;;5053198;28;20171;-61
2021/12/04 06:30:52;;;;;;;13.23;11.90;;;6.70;99.90;;;;;;5050770;28;20217;-62
2021/12/04 06:33:18;;;;;;;13.00;11.80;;;6.80;99.90;;;;;;5050900;28;20190;-61
2021/12/04 06:35:46;;;;;;;13.32;12.10;;;6.70;99.90;;;;;;5052590;28;20178;-61
2021/12/04 06:38:15;;;;;;;14.35;12.95;;;6.70;99.90;;;;;;5053019;28;20639;-61
2021/12/04 06:40:41;;;;;;;15.02;13.73;;;6.70;99.90;;;;;;5052976;28;20170;-60
2021/12/04 06:43:07;;;;;;;17.27;15.70;;;6.70;99.90;;;;;;5035243;28;20625;-61
2021/12/04 06:45:37;;;;;;;17.10;15.55;;;6.70;99.90;;;;;;5052772;28;20178;-60
2021/12/04 06:48:15;;;;;;;16.65;15.15;;;6.80;99.90;;;;;;5052884;28;20182;-61
2021/12/04 06:50:50;;;;;;;15.00;13.50;;;6.70;99.90;;;;;;5053243;28;20281;-60
2021/12/04 06:53:30;;;;;;;15.93;14.43;;;6.80;99.90;;;;;;5052949;28;20181;-60
2021/12/04 06:55:58;;;;;;;17.42;15.63;;;6.80;99.90;;;;;;5052946;28;20162;-64
2021/12/04 06:58:27;;;;;;;15.75;12.77;;;6.70;99.90;;;;;;5052848;28;20178;-60
2021/12/04 07:00:54;;;;;;;16.25;14.65;;;6.60;99.90;;;;;;5055120;28;20187;-61
2021/12/04 07:03:20;;;;;;;16.42;14.68;;;6.50;99.90;;;;;;5056703;28;20525;-61
2021/12/04 07:05:46;;;;;;;14.80;13.20;;;6.60;99.90;;;;;;5056576;28;20206;-60
2021/12/04 07:08:13;;;;;;;17.65;15.70;;;6.60;99.90;;;;;;5056643;28;20207;-60
2021/12/04 07:10:39;;;;;;;17.23;15.52;;;6.60;99.90;;;;;;5054230;28;20204;-61
2021/12/04 07:13:06;;;;;;;17.35;15.68;;;6.60;99.90;;;;;;5055833;28;20190;-60
2021/12/04 07:15:32;;;;;;;15.05;13.20;;;6.70;99.90;;;;;;5056021;28;20187;-61
2021/12/04 07:18:02;;;;;;;18.88;16.88;;;6.70;99.90;;;;;;5056464;28;20267;-61
2021/12/04 07:20:28;;;;;;;17.50;15.80;;;6.60;99.90;;;;;;5056362;28;20178;-60
2021/12/04 07:22:55;;;;;;;18.45;16.55;;;6.70;99.90;;;;;;5056311;28;20202;-61
2021/12/04 07:25:22;;;;;;;16.48;13.85;;;6.70;99.90;;;;;;5056208;28;20248;-60
2021/12/04 07:27:50;;;;;;;17.55;15.88;;;6.70;99.90;;;;;;5056197;28;20179;-60
2021/12/04 07:30:17;;;;;;;18.52;16.55;;;6.80;99.90;;;;;;5055640;28;20533;-61
2021/12/04 07:32:42;;;;;;;17.95;16.15;;;6.80;99.90;;;;;;5055598;28;20179;-63
2021/12/04 07:35:09;;;;;;;16.75;14.70;;;6.80;99.90;;;;;;5037711;28;20175;-61
2021/12/04 07:37:34;;;;;;;14.25;12.20;;;6.80;99.90;;;;;;5055455;28;20210;-60
2021/12/04 07:40:01;;;;;;;14.60;13.20;;;6.70;99.90;;;;;;5055509;28;20215;-60
2021/12/04 07:42:26;;;;;;;15.48;13.88;;;6.70;99.90;;;;;;5055552;28;20202;-60
2021/12/04 07:44:52;;;;;;;13.57;11.07;;;6.70;99.90;;;;;;5055766;28;20182;-61
2021/12/04 07:47:17;;;;;;;13.82;12.57;;;6.70;99.90;;;;;;5055637;28;20264;-61
2021/12/04 07:49:43;;;;;;;11.50;10.30;;;6.80;99.90;;;;;;5055867;28;20182;-60
2021/12/04 07:52:10;;;;;;;13.80;12.52;;;6.80;99.90;;;;;;5055450;28;20650;-61
2021/12/04 07:54:36;;;;;;;14.55;13.15;;;6.80;99.90;;;;;;5054283;28;20171;-61
2021/12/04 07:57:03;;;;;;;14.15;12.85;;;6.80;99.90;;;;;;5055737;28;20221;-61
2021/12/04 07:59:29;;;;;;;12.63;10.98;;;6.80;99.90;;;;;;5055715;28;20178;-61
2021/12/04 08:01:56;;;;;;;13.10;11.98;;;6.80;99.90;;;;;;5055623;28;20207;-60
2021/12/04 08:04:23;;;;;;;13.70;12.50;;;6.80;99.90;;;;;;5055325;28;20539;-65
2021/12/04 08:06:49;;;;;;;12.23;11.02;;;6.80;99.90;;;;;;5055585;28;20190;-60
2021/12/04 08:09:15;;;;;;;10.98;9.85;;;6.80;99.90;;;;;;5055296;28;20171;-62
2021/12/04 08:11:41;;;;;;;10.93;9.80;;;6.80;99.90;;;;;;5054079;28;20670;-61
2021/12/04 08:14:06;;;;;;;12.30;11.20;;;6.80;99.90;;;;;;5037860;28;20690;-61
2021/12/04 08:16:33;;;;;;;9.35;8.45;;;6.80;99.90;;;;;;5053971;28;20694;-61
2021/12/04 08:18:58;;;;;;;9.93;8.82;;;6.90;99.90;;;;;;5055222;28;20225;-61
2021/12/04 08:21:25;;;;;;;11.38;10.05;;;6.90;99.90;;;;;;5053780;28;20207;-60
2021/12/04 08:23:51;;;;;;;9.63;8.50;;;6.90;99.90;;;;;;5055118;28;20172;-61
2021/12/04 08:26:18;;;;;;;11.35;10.15;;;6.90;99.90;;;;;;5053985;28;20167;-61
2021/12/04 08:28:44;;;;;;;9.90;8.27;;;7.00;99.90;;;;;;5037318;28;20629;-61
2021/12/04 08:31:10;;;;;;;11.60;10.45;;;6.90;99.90;;;;;;5055160;28;20187;-62
2021/12/04 08:33:36;;;;;;;11.20;10.20;;;7.00;99.90;;;;;;5054812;28;20624;-61
2021/12/04 08:36:04;;;;;;;12.07;10.85;;;7.00;99.90;;;;;;5054995;28;20240;-61
2021/12/04 08:38:31;;;;;;;11.25;10.23;;;7.00;99.90;;;;;;5053648;28;20564;-61
2021/12/04 08:40:57;;;;;;;11.70;10.60;;;7.00;99.90;;;;;;5054691;28;20221;-62
2021/12/04 08:43:22;;;;;;;10.13;9.07;;;7.00;99.90;;;;;;5054913;28;20581;-62
2021/12/04 08:45:48;;;;;;;10.88;9.93;;;7.00;99.90;;;;;;5054749;28;20262;-61
2021/12/04 08:48:14;;;;;;;10.50;9.60;;;7.10;99.90;;;;;;5054708;28;20205;-61
2021/12/04 08:50:41;;;;;;;10.52;9.55;;;7.10;99.90;;;;;;5054752;28;20208;-61
2021/12/04 08:53:08;;;;;;;10.43;9.32;;;7.10;99.90;;;;;;5054736;28;20258;-61
2021/12/04 08:55:36;;;;;;;10.70;9.68;;;7.10;99.90;;;;;;5054470;28;20221;-62
2021/12/04 08:58:03;;;;;;;10.52;9.52;;;7.10;99.90;;;;;;5053400;28;20176;-61
2021/12/04 09:00:41;;;;;;;10.02;9.13;;;7.10;99.90;;;;;;5053406;28;20175;-62
2021/12/04 09:03:08;;;;;;;10.88;9.88;;;7.10;99.90;;;;;;5054204;28;20232;-61
2021/12/04 09:05:36;;;;;;;8.55;7.60;;;7.00;99.90;;;;;;5052514;28;20321;-62
2021/12/04 09:08:02;;;;;;;10.02;9.13;;;7.10;99.90;;;;;;5053202;28;20202;-62
2021/12/04 09:10:28;;;;;;;10.52;9.57;;;7.10;99.90;;;;;;5054181;28;20183;-61
2021/12/04 09:12:55;;;;;;;10.50;9.57;;;7.10;99.90;;;;;;5053893;28;20781;-61
2021/12/04 09:15:24;;;;;;;11.02;9.93;;;7.20;99.90;;;;;;5053793;28;20186;-60
2021/12/04 09:17:49;;;;;;;10.52;9.52;;;7.20;99.90;;;;;;5054270;28;20164;-59
2021/12/04 09:20:16;;;;;;;11.07;9.63;;;7.20;99.90;;;;;;5053813;28;20267;-60
2021/12/04 09:22:44;;;;;;;10.98;10.07;;;7.20;99.90;;;;;;5053045;28;20199;-59
2021/12/04 09:25:15;;;;;;;11.60;10.50;;;7.30;99.90;;;;;;5054063;28;20179;-59
2021/12/04 10:17:10;;;;;;;16.70;14.63;;;7.60;99.90;;;;;;5053754;28;20289;-61
2021/12/04 10:22:25;;;;;;;20.00;17.10;;;7.60;99.90;;;;;;5053355;28;20233;-61
2021/12/04 10:33:46;;;;;;;23.45;18.73;;;7.60;99.90;;;;;;5055075;28;20259;-61
2021/12/04 10:36:24;;;;;;;25.58;18.17;;;7.60;99.90;;;;;;5057227;28;20189;-61
2021/12/04 10:38:51;;;;;;;23.75;18.95;;;7.50;99.90;;;;;;5057185;28;20170;-61
2021/12/04 10:41:17;;;;;;;22.05;18.70;;;7.60;99.90;;;;;;5057245;28;20261;-60
2021/12/04 10:43:43;;;;;;;21.17;18.73;;;7.50;99.90;;;;;;5055974;28;20172;-59
2021/12/04 10:46:18;;;;;;;21.30;18.67;;;7.40;99.90;;;;;;5057301;28;20180;-59
2021/12/04 10:48:51;;;;;;;26.48;19.02;;;7.40;99.90;;;;;;5056958;28;20658;-59
2021/12/04 10:53:53;;;;;;;21.08;17.80;;;7.40;99.90;;;;;;5055825;28;20639;-59
2021/12/04 10:56:36;;;;;;;20.30;17.98;;;7.30;99.90;;;;;;5056889;28;20265;-59
2021/12/04 10:59:42;;;;;;;25.77;17.70;;;7.30;99.90;;;;;;5055703;28;20178;-59
2021/12/04 11:02:19;;;;;;;19.77;14.82;;;7.20;99.90;;;;;;5055118;28;20214;-59
2021/12/04 11:04:52;;;;;;;23.02;18.13;;;7.10;99.90;;;;;;5056344;28;20199;-59
2021/12/04 11:18:52;;;;;;;16.83;12.80;;;7.10;99.90;;;;;;5056294;28;20225;-59
2021/12/04 11:35:40;;;;;;;12.35;10.40;;;7.30;99.90;;;;;;5056117;28;20170;-59
2021/12/04 11:43:10;;;;;;;12.32;8.85;;;7.30;99.90;;;;;;5056006;28;20202;-60
2021/12/04 11:45:48;;;;;;;12.45;9.40;;;7.30;99.90;;;;;;5055388;28;20528;-59
2021/12/04 11:48:14;;;;;;;11.73;9.90;;;7.30;99.90;;;;;;5055766;28;20164;-59
2021/12/04 11:50:49;;;;;;;12.13;10.30;;;7.30;99.90;;;;;;5055518;28;20185;-59
2021/12/04 11:53:17;;;;;;;14.02;9.70;;;7.40;99.90;;;;;;5056193;28;20191;-59
2021/12/04 11:55:46;;;;;;;9.20;6.88;;;7.30;99.90;;;;;;5055771;28;20222;-61
2021/12/04 11:58:22;;;;;;;13.55;9.68;;;7.40;99.90;;;;;;5055727;28;20187;-59
2021/12/04 12:00:49;;;;;;;9.90;8.40;;;7.50;99.90;;;;;;5054366;28;20163;-60
2021/12/04 12:03:26;;;;;;;14.15;8.15;;;7.40;99.90;;;;;;5055602;28;20171;-59
2021/12/04 12:05:53;;;;;;;11.48;8.80;;;7.50;99.90;;;;;;5054401;28;20166;-59
2021/12/04 12:08:36;;;;;;;11.98;9.35;;;7.50;99.90;;;;;;5054293;28;20544;-62
2021/12/04 12:11:05;;;;;;;10.68;8.73;;;7.50;99.90;;;;;;5055549;28;20206;-59
2021/12/04 12:13:35;;;;;;;10.20;8.60;;;7.50;99.90;;;;;;5055266;28;20708;-59
2021/12/04 12:16:07;;;;;;;14.27;9.82;;;7.60;99.90;;;;;;5055355;28;20199;-59
2021/12/04 12:18:44;;;;;;;13.50;10.05;;;7.60;99.90;;;;;;5055381;28;20178;-59
2021/12/04 12:21:11;;;;;;;12.63;9.57;;;7.60;99.90;;;;;;5055505;28;20668;-59
2021/12/04 12:24:11;;;;;;;12.95;9.50;;;7.60;99.90;;;;;;5055227;28;20274;-59
2021/12/04 12:26:45;;;;;;;12.15;10.48;;;7.60;99.90;;;;;;5055113;28;20209;-59
2021/12/04 12:36:03;;;;;;;13.52;9.05;;;7.60;99.90;;;;;;5054087;28;20232;-60
2021/12/04 12:39:14;;;;;;;13.80;11.48;;;7.60;99.90;;;;;;5050696;28;20172;-59
2021/12/04 12:41:49;;;;;;;17.25;12.10;;;7.60;99.90;;;;;;5053151;28;20194;-59
2021/12/04 12:44:18;;;;;;;17.35;13.05;;;7.60;99.90;;;;;;5052226;28;20670;-60
2021/12/04 12:46:48;;;;;;;16.08;12.60;;;7.60;99.90;;;;;;5053635;28;20179;-60
2021/12/04 12:49:39;;;;;;;20.95;14.13;;;7.50;99.90;;;;;;5052101;28;20213;-60
2021/12/04 12:52:05;;;;;;;20.73;14.55;;;7.60;99.90;;;;;;5052581;28;20167;-63
2021/12/04 12:54:34;;;;;;;22.60;15.27;;;7.70;99.90;;;;;;5054506;28;20654;-61
2021/12/04 12:57:23;;;;;;;20.67;14.77;;;7.70;99.90;;;;;;5053319;28;20510;-60
2021/12/04 13:12:14;;;;;;;26.02;15.73;;;7.90;99.90;;;;;;5054195;28;20528;-59
2021/12/04 13:14:42;;;;;;;22.83;14.02;;;7.80;99.90;;;;;;5054360;28;20218;-59
2021/12/04 13:17:21;;;;;;;27.42;13.60;;;7.90;99.90;;;;;;5070622;28;20610;-59
2021/12/04 13:19:51;;;;;;;26.00;13.32;;;8.00;99.90;;;;;;5070601;28;20176;-59
2021/12/04 13:22:29;;;;;;;23.08;11.57;;;8.00;99.90;;;;;;5070436;28;20182;-59
2021/12/04 13:24:57;;;;;;;22.35;11.13;;;8.00;99.90;;;;;;5070526;28;20726;-59
2021/12/04 13:29:59;;;;;;;19.70;8.73;;;8.00;99.90;;;;;;5069733;28;20186;-59
2021/12/04 13:32:32;;;;;;;14.65;8.00;;;8.00;99.90;;;;;;5070670;28;20162;-60
2021/12/04 13:35:24;;;;;;;17.77;7.75;;;8.00;99.90;;;;;;5070500;28;20159;-58
2021/12/04 13:37:56;;;;;;;11.65;6.20;;;8.10;99.90;;;;;;5068985;28;20270;-59
2021/12/04 13:40:22;;;;;;;11.80;5.75;;;8.20;99.90;;;;;;5070050;28;20167;-58
2021/12/04 13:42:48;;;;;;;10.65;4.85;;;8.20;99.90;;;;;;5068597;28;20183;-58
2021/12/04 13:45:18;;;;;;;11.40;4.63;;;8.30;99.90;;;;;;5069468;28;20182;-59
2021/12/04 13:47:54;;;;;;;9.70;3.90;;;8.30;99.90;;;;;;5070433;28;20221;-58
2021/12/04 13:53:07;;;;;;;8.70;3.08;;;8.50;99.90;;;;;;5069147;28;20220;-61
2021/12/04 13:55:38;;;;;;;7.05;2.88;;;8.50;99.90;;;;;;5070058;28;20201;-61
2021/12/04 13:58:05;;;;;;;5.38;3.00;;;8.50;99.90;;;;;;5068737;28;20231;-58
2021/12/04 14:00:31;;;;;;;6.18;2.60;;;8.50;99.90;;;;;;5069613;28;20705;-59
2021/12/04 14:02:56;;;;;;;5.55;2.75;;;8.60;99.90;;;;;;5068627;28;20190;-58
2021/12/04 14:05:24;;;;;;;4.40;2.45;;;8.50;99.90;;;;;;5069835;28;20621;-59
2021/12/04 14:07:54;;;;;;;7.07;2.38;;;8.50;99.90;;;;;;5069475;28;20201;-59
2021/12/04 14:10:26;;;;;;;6.88;2.33;;;8.40;99.90;;;;;;5068415;28;20644;-62
2021/12/04 14:12:54;;;;;;;8.05;2.55;;;8.30;99.90;;;;;;5069478;28;20163;-58
2021/12/04 14:15:21;;;;;;;7.35;2.72;;;8.20;99.90;;;;;;5069408;28;20229;-61
2021/12/04 14:17:49;;;;;;;8.18;3.13;;;8.20;99.90;;;;;;5069862;28;20171;-58
2021/12/04 14:20:23;;;;;;;7.13;3.00;;;8.10;99.90;;;;;;5069495;28;20253;-59
2021/12/04 14:22:50;;;;;;;6.57;2.70;;;8.20;99.90;;;;;;5069617;28;20525;-59
2021/12/04 14:25:18;;;;;;;5.90;2.60;;;8.10;99.90;;;;;;5069330;28;20216;-59
2021/12/04 14:27:44;;;;;;;8.90;3.20;;;8.10;99.90;;;;;;5059961;28;20172;-58
2021/12/04 14:30:14;;;;;;;8.85;3.30;;;8.10;99.90;;;;;;5055960;28;20194;-59
2021/12/04 14:32:42;;;;;;;7.68;3.08;;;8.00;99.90;;;;;;5055894;28;20175;-58
2021/12/04 14:35:14;;;;;;;6.07;2.95;;;8.00;99.90;;;;;;5054874;28;20261;-58
2021/12/04 14:37:41;;;;;;;7.88;3.40;;;8.00;99.90;;;;;;5056138;28;20528;-58
2021/12/04 14:40:19;;;;;;;7.80;3.58;;;7.90;99.90;;;;;;5055964;28;20180;-59
2021/12/04 14:42:45;;;;;;;7.07;4.05;;;7.80;99.90;;;;;;5055978;28;20163;-58
2021/12/04 14:45:17;;;;;;;14.45;5.40;;;7.80;99.90;;;;;;5055724;28;20544;-59
2021/12/04 14:47:54;;;;;;;17.08;7.13;;;7.80;99.90;;;;;;5056000;28;20195;-58
2021/12/04 14:50:21;;;;;;;19.48;6.82;;;7.70;99.90;;;;;;5055869;28;20202;-59
2021/12/04 14:52:53;;;;;;;14.38;5.35;;;7.70;99.90;;;;;;5055781;28;20178;-58
2021/12/04 14:55:32;;;;;;;23.15;5.72;;;7.70;99.90;;;;;;5055595;28;20668;-58
2021/12/04 14:57:58;;;;;;;19.08;6.45;;;7.60;99.90;;;;;;5055713;28;20258;-62
2021/12/04 15:00:59;;;;;;;19.98;6.10;;;7.50;99.90;;;;;;5055676;28;20186;-58
2021/12/04 15:03:40;;;;;;;21.58;6.53;;;7.50;99.90;;;;;;5055676;28;20158;-58
2021/12/04 15:06:08;;;;;;;15.73;5.28;;;7.50;99.90;;;;;;5055616;28;20232;-58
2021/12/04 15:08:38;;;;;;;20.25;6.93;;;7.40;99.90;;;;;;5054365;28;20609;-65
2021/12/04 15:11:17;;;;;;;21.05;7.53;;;7.40;99.90;;;;;;5055507;28;20171;-58
2021/12/04 15:13:58;;;;;;;25.48;8.38;;;7.40;99.90;;;;;;5053885;28;20175;-58
2021/12/04 15:16:41;;;;;;;32.35;10.55;;;7.30;99.90;;;;;;5055398;28;20250;-59
2021/12/04 15:19:17;;;;;;;41.95;13.88;;;7.20;99.90;;;;;;5055338;28;20155;-59
2021/12/04 15:21:51;;;;;;;46.78;15.90;;;7.10;99.90;;;;;;5055255;28;20254;-59
2021/12/04 15:24:33;;;;;;;42.45;13.50;;;6.90;99.90;;;;;;5053911;28;20179;-59
2021/12/04 15:27:06;;;;;;;43.25;15.07;;;6.80;99.90;;;;;;5055199;28;20165;-60
2021/12/04 15:29:34;;;;;;;28.42;12.15;;;6.80;99.90;;;;;;5053889;28;20163;-59
2021/12/04 15:32:05;;;;;;;24.38;6.93;;;6.70;99.90;;;;;;5054156;28;20175;-59
2021/12/04 15:34:31;;;;;;;19.25;6.15;;;6.70;99.90;;;;;;5055059;28;20167;-59
2021/12/04 15:37:02;;;;;;;18.67;6.15;;;6.60;99.90;;;;;;5054917;28;20194;-59
2021/12/04 15:39:32;;;;;;;13.27;4.40;;;6.60;99.90;;;;;;5054153;28;20200;-59
2021/12/04 15:53:08;;;;;;;14.60;3.67;;;6.50;99.90;;;;;;5054390;28;20173;-60
2021/12/04 15:55:41;;;;;;;12.50;3.53;;;6.50;99.90;;;;;;5054507;28;20199;-61
2021/12/04 15:58:16;;;;;;;9.10;2.80;;;6.60;99.90;;;;;;5054657;28;20171;-63
2021/12/04 16:01:04;;;;;;;15.55;3.88;;;6.60;99.90;;;;;;5054862;28;20198;-63
2021/12/04 16:03:30;;;;;;;8.55;3.25;;;6.60;99.90;;;;;;5054496;28;20224;-61
2021/12/04 16:05:58;;;;;;;12.65;4.30;;;6.60;99.90;;;;;;5053035;28;20183;-59
2021/12/04 16:08:27;;;;;;;11.45;4.03;;;6.60;99.90;;;;;;5054242;28;20690;-62